SARC

Details ICAO SARC (CNQ)
Name CORRIENTES
Region Argentina
Timezone America/Argentina/Cordoba (UTC-3.0)
Plans Departing 14
Arriving 13
Stats Elevation 203 ft / 62 m (AMSL)
Location -27.445503° -58.761862°
Runways 1
Magnetic Variation 12.298° W
Sunrise 2017-12-16 08:56:10 UTC / 2017-12-16 05:56:10 Local
Sunset 2017-12-16 22:48:07 UTC / 2017-12-16 19:48:07 Local
Advertisement - Login to hide

Runways

ID Width Length Bearing (true) Bearing (mag) Surface Threshold Offset Overrun Length
02 148 ft / 45 m 6,880 ft / 2,097 m 7.82° 20.12° Concrete 0 ft / 0 m 0 ft / 0 m
20 148 ft / 45 m 6,880 ft / 2,097 m 187.82° 200.12° Concrete 0 ft / 0 m 0 ft / 0 m

Approach Navaids

Runway Type Ident Frequency Range Bearing (true) Bearing (mag) Slope Elevation
20 Localiser CR 109.70 MHz 18 nm / 33 km 187.73° 200.03° - 203 ft / 62 m (AMSL)
20 Glidescope CR 109.70 MHz 10 nm / 19 km 187.82° 200.12° 3.00° 203 ft / 62 m (AMSL)

Map

Weather


0- 5 10 15 20 25 30 35+ Temperature / ° C

Clouds and Precipitation
Forecast for 2017-12-17 00:00 UTC. Updated 2 hours ago

Ground ~20,000 ft ~40,000 ft Winds

METAR

SARC 162300Z 05012KT 7000 36/21 Q1000

TAF

Not found

Frequencies

Tower 118.30 MHz TWR
Tower 118.85 MHz TWR
Warning: Do not use this data for real-world aviation or navigation. No guarantee of current accuracy is given.